Olga Topic — ELSG4 — position and weather

sailwx.info

Track history (hours):
 
Tides and Currents Weather Stations Pressure Air Temp Water Temp Dewpoint Dewpoint Depression Visibility Wind Speed Wind Dir Waves Ship Positions

Olga Topic

Last reported at 2015-Apr-16 22:30 UTC. Time now 2015-Apr-19 01:11 UTC.
Position N 39°56' E 018°47'.

Length 186 m; draft 9.5 m.

Type: Cargo ship. MMSI: 636010327.

Date/timePositionNaut miles runAvg speedWind from/ knotsBaromVisibWave heightAir tempDewpointWater temp
2015-Apr-16 22:30N 39°56' E 018°47'1314.3
2015-Apr-16 21:33N 39°46' E 018°35'1414.2
2015-Apr-16 20:34N 39°36' E 018°23'1814.1
2015-Apr-16 19:19N 39°24' E 018°07'1214.4
2015-Apr-16 18:30N 39°15' E 017°56'165 7.4
2015-Apr-15 20:09N 40°29' E 014°44'  
2015-Apr-13 15:06N 40°34' E 014°36'814.4
2015-Apr-13 14:31N 40°30' E 014°27'1414.2
2015-Apr-13 13:33N 40°22' E 014°12'1814.3
2015-Apr-13 12:19N 40°14' E 013°51'1213.9
2015-Apr-13 11:26N 40°10' E 013°36'48613.5
2015-Apr-11 23:29N 37°35' E 003°45'44713.6
2015-Apr-10 14:33N 35°59' W 005°20'  
Track history (hours):
 
Tides and Currents Weather Stations Pressure Air Temp Water Temp Dewpoint Dewpoint Depression Visibility Wind Speed Wind Dir Waves Ship Positions

Olga Topic

Last reported at 2015-Apr-16 22:30 UTC. Time now 2015-Apr-19 01:11 UTC.
Position N 39°56' E 018°47'.

Length 186 m; draft 9.5 m.

Type: Cargo ship. MMSI: 636010327.

Date/timePositionNaut miles runAvg speedWind from/ knotsBaromVisibWave heightAir tempDewpointWater temp
2015-Apr-16 22:30N 39°56' E 018°47'1314.3
2015-Apr-16 21:33N 39°46' E 018°35'1414.2
2015-Apr-16 20:34N 39°36' E 018°23'1814.1
2015-Apr-16 19:19N 39°24' E 018°07'1214.4
2015-Apr-16 18:30N 39°15' E 017°56'165 7.4
2015-Apr-15 20:09N 40°29' E 014°44'  
2015-Apr-13 15:06N 40°34' E 014°36'814.4
2015-Apr-13 14:31N 40°30' E 014°27'1414.2
2015-Apr-13 13:33N 40°22' E 014°12'1814.3
2015-Apr-13 12:19N 40°14' E 013°51'1213.9
2015-Apr-13 11:26N 40°10' E 013°36'48613.5
2015-Apr-11 23:29N 37°35' E 003°45'44713.6
2015-Apr-10 14:33N 35°59' W 005°20'  

Dump ship's entire track history